Airport View

Enter AWOS ICAO identifier for current METAR.

ex. KFNL

KPVB 251625Z AUTO 01012KT 10SM SCT028 OVC090 02/M04 A3026 RMK AO1 T00171039

25 Oct 2020 16:28

Frequency: 120.575

Phone: 608-348-3637

Other Area AWOS: KMRJ - KDBQ - KOVS - KLNR

TAF KDBQ 251120Z 2512/2612 03009KT P6SM OVC090 FM252000 04009KT P6SM OVC020 FM260300 36008KT 4SM -SN BR SCT007 OVC015